Arlington, Indiana
Current Conditions -  °F | °C
As of 12:53 AM on Monday 22 Dec 2014 (Local Time) from KGEZ Reporting Station
Clear Clear  
Wind Chill: 22°   Ceiling: Unl
Heat Index: 31°   Visibility: 7mi
Dew Point: 25°   Wind: 10mph
Humidity: 79%   Direction: 110°ESE
Pressure: 30.05"   Gusts: NA
Location:  39.64°N, 85.57°W
Report Text: KGEZ 220553Z AUTO 11009KT 7SM CLR M01/M04 A3005 RMK AO2 SLP183 T10061039 10000 21011 58019
Loading
Personal Weather Stations






























Interactive Weather Map New forecast layout! Learn more

10-Day Weather Forecast

Advertisements
Track Severe Weather on mobile